Latest Weather Observations for Esperance Airport

IDW60801

Issued at 6:04 am WST Thursday 23 February 2017 (issued every 30 minutes, with the page automatically refreshed every 10 minutes)

About weather observations | Map of weather stations | Latest weather observations for WA | Other Formats
Station Details ID: 009542 Name: ESPERANCE AERO Lat: -33.68 Lon: 121.83 Height: 142.0 m
Data from the previous 72 hours. | See also: Recent months at Esperance Airport
Date/Time
WST
Temp
°C
App
Temp
°C
Dew
Point
°C
Rel
Hum
%
Delta-T
°C
Wind Press
QNH
hPa
Press
MSL
hPa
Rain since
9am
mm
Dir  Spd
km/h
Gust
km/h
Spd
kts
Gust
kts
23/06:00am 14.5 13.7 13.0 91 0.8 N 9 13 5 7 1023.5 1023.0 0.2
23/05:30am 14.3 13.5 13.0 92 0.7 N 9 15 5 8 1023.3 1022.8 0.2
23/05:00am 14.2 13.4 12.9 92 0.7 N 9 13 5 7 1022.9 1022.4 0.2
23/04:30am 14.1 13.3 13.0 93 0.6 N 9 11 5 6 1022.7 1022.2 0.2
23/04:00am 14.1 13.3 13.0 93 0.6 N 9 11 5 6 1022.4 1021.9 0.2
23/03:30am 13.9 13.4 12.8 93 0.6 N 7 9 4 5 1022.1 1021.6 0.2
23/03:00am 13.8 12.9 12.7 93 0.6 N 9 11 5 6 1022.0 1021.5 0.2
23/02:30am 13.6 12.7 12.5 93 0.6 N 9 11 5 6 1021.8 1021.3 0.2
23/02:00am 13.6 12.7 12.5 93 0.6 N 9 9 5 5 1021.7 1021.2 0.2
23/01:30am 13.5 12.5 12.4 93 0.6 N 9 11 5 6 1021.7 1021.2 0.2
23/01:00am 13.0 11.9 11.9 93 0.6 N 9 11 5 6 1021.6 1021.1 0.2
23/12:30am 12.3 11.0 11.2 93 0.6 NNE 9 9 5 5 1021.6 1021.1 0.2
23/12:00am 12.4 11.1 11.3 93 0.6 N 9 9 5 5 1021.6 1021.1 0.2
 
Date/Time
WST
Temp
°C
App
Temp
°C
Dew
Point
°C
Rel
Hum
%
Delta-T
°C
Wind Press
QNH
hPa
Press
MSL
hPa
Rain since
9am
mm
Dir  Spd
km/h
Gust
km/h
Spd
kts
Gust
kts
22/11:30pm 12.4 11.1 11.1 92 0.7 N 9 11 5 6 1021.6 1021.1 0.2
22/11:00pm 12.7 11.4 11.4 92 0.7 N 9 9 5 5 1021.7 1021.2 0.2
22/10:30pm 12.7 11.8 11.3 91 0.7 NE 7 9 4 5 1021.9 1021.4 0.2
22/10:00pm 13.4 14.0 11.8 90 0.9 CALM 0 0 0 0 1022.1 1021.6 0.2
22/09:30pm 12.9 13.3 11.1 89 1.0 CALM 0 0 0 0 1022.1 1021.6 0.2
22/09:00pm 14.5 15.3 12.5 88 1.1 CALM 0 0 0 0 1022.2 1021.7 0.2
22/08:30pm 14.5 15.3 12.4 87 1.2 CALM 0 0 0 0 1022.1 1021.6 0.2
22/08:00pm 14.9 15.3 12.4 85 1.4 S 2 6 1 3 1021.8 1021.3 0.2
22/07:30pm 15.1 14.6 12.2 83 1.6 S 6 6 3 3 1021.6 1021.1 0.2
22/07:00pm 15.6 15.0 12.2 80 1.9 SSW 7 9 4 5 1021.2 1020.7 0.2
22/06:30pm 16.6 15.0 11.5 72 2.8 SSW 11 17 6 9 1020.9 1020.4 0.2
22/06:00pm 18.3 16.1 12.1 67 3.4 SSW 15 22 8 12 1020.4 1019.9 0.2
22/05:30pm 18.3 15.9 11.4 64 3.8 SW 15 20 8 11 1020.2 1019.7 0.2
22/05:00pm 18.7 15.4 11.5 63 4.0 SW 20 28 11 15 1020.1 1019.6 0.2
22/04:30pm 19.1 15.1 11.7 62 4.1 SW 24 30 13 16 1020.0 1019.5 0.2
22/04:00pm 19.9 15.6 10.9 56 4.9 SW 24 35 13 19 1019.9 1019.4 0.2
22/03:30pm 19.2 14.7 10.2 56 4.9 SW 24 33 13 18 1019.9 1019.4 0.2
22/03:00pm 20.8 17.2 11.7 56 5.1 WSW 22 33 12 18 1019.9 1019.4 0.0
22/02:30pm 19.0 15.2 11.1 60 4.3 W 22 28 12 15 1019.9 1019.4 0.0
22/02:00pm 19.8 15.5 12.1 61 4.3 SW 26 33 14 18 1019.8 1019.3 0.0
22/01:30pm 18.9 15.3 11.7 63 4.0 WSW 22 32 12 17 1019.9 1019.4 0.0
22/01:00pm 17.2 13.2 11.9 71 2.9 WSW 24 32 13 17 1020.1 1019.6 0.0
22/12:30pm 17.8 13.9 10.7 63 3.8 WSW 22 28 12 15 1020.0 1019.5 0.0
22/12:00pm 18.4 14.8 10.5 60 4.3 SW 20 28 11 15 1019.8 1019.3 0.0
22/11:30am 17.5 13.8 10.1 62 3.9 SW 20 28 11 15 1019.8 1019.3 0.0
22/11:00am 16.7 13.7 12.0 74 2.6 SW 19 26 10 14 1019.8 1019.3 0.0
22/10:30am 16.0 11.2 11.8 76 2.3 SW 28 35 15 19 1019.8 1019.3 0.0
22/10:00am 16.5 11.8 11.9 74 2.5 SSW 28 37 15 20 1019.5 1019.0 0.0
22/09:30am 16.9 13.3 10.7 67 3.3 SW 20 30 11 16 1019.3 1018.8 0.0
22/09:00am 16.7 12.3 10.3 66 3.4 SSW 24 32 13 17 1018.9 1018.3 6.4
22/08:30am 16.5 12.6 10.8 69 3.1 SW 22 28 12 15 1018.6 1018.0 6.4
22/08:00am 16.1 12.9 11.1 72 2.7 SW 19 28 10 15 1018.3 1017.7 6.4
22/07:30am 15.6 12.0 10.6 72 2.7 SW 20 30 11 16 1017.9 1017.3 6.4
22/07:00am 15.7 12.1 9.8 68 3.1 SW 19 22 10 12 1017.5 1016.9 6.4
22/06:30am 14.3 11.0 9.5 73 2.5 SW 17 20 9 11 1017.4 1016.8 6.4
22/06:00am 13.9 10.5 10.5 80 1.8 SW 19 24 10 13 1017.0 1016.4 6.4
22/05:30am 14.2 10.4 11.2 82 1.6 SW 22 32 12 17 1016.8 1016.2 6.4
22/05:00am 13.1 11.0 11.3 89 1.0 SW 13 19 7 10 1016.5 1015.9 6.4
22/04:30am 12.8 10.3 10.9 88 1.0 W 15 19 8 10 1016.1 1015.6 6.4
22/04:00am 12.0 9.3 10.2 89 0.9 W 15 19 8 10 1015.9 1015.4 6.4
22/03:30am 12.0 9.2 10.1 88 1.0 W 15 19 8 10 1015.9 1015.4 6.4
22/03:00am 12.3 9.6 10.2 87 1.1 W 15 20 8 11 1015.8 1015.3 6.4
22/02:30am 12.2 9.1 10.4 89 0.9 W 17 20 9 11 1015.7 1015.2 6.4
22/02:00am 12.6 9.0 10.7 88 1.0 W 20 24 11 13 1015.5 1015.0 6.4
22/01:30am 13.0 9.6 11.2 89 1.0 W 20 26 11 14 1015.6 1015.1 6.4
22/01:00am 12.9 8.7 11.1 89 1.0 W 24 30 13 16 1015.4 1014.9 6.4
22/12:30am 12.7 8.9 11.3 91 0.7 W 22 32 12 17 1015.5 1015.0 6.4
22/12:00am 12.6 8.8 11.3 92 0.7 WNW 22 28 12 15 1015.5 1015.0 6.4
 
Date/Time
WST
Temp
°C
App
Temp
°C
Dew
Point
°C
Rel
Hum
%
Delta-T
°C
Wind Press
QNH
hPa
Press
MSL
hPa
Rain since
9am
mm
Dir  Spd
km/h
Gust
km/h
Spd
kts
Gust
kts
21/11:30pm 12.7 8.6 11.4 92 0.7 WNW 24 32 13 17 1015.4 1014.9 6.4
21/11:27pm 12.7 8.6 11.4 92 0.7 W 24 32 13 17 1015.4 1014.9 6.4
21/11:25pm 12.8 8.3 11.5 92 0.7 W 26 32 14 17 1015.3 1014.8 6.4
21/11:01pm 12.9 8.8 11.5 91 0.7 WSW 24 39 13 21 1015.3 1014.8 6.2
21/11:00pm 12.9 8.8 11.5 91 0.7 WSW 24 39 13 21 1015.3 1014.8 6.2
21/10:51pm 13.0 8.9 11.4 90 0.9 WSW 24 33 13 18 1015.2 1014.7 5.0
21/10:46pm 13.0 8.1 11.4 90 0.9 W 28 37 15 20 1014.9 1014.4 4.8
21/10:30pm 12.9 7.9 11.1 89 1.0 WSW 28 39 15 21 1014.9 1014.4 4.8
21/10:08pm 13.2 8.3 10.0 81 1.7 W 26 37 14 20 1015.0 1014.5 4.0
21/10:00pm 14.4 9.8 9.6 73 2.5 W 24 32 13 17 1014.7 1014.2 3.6
21/09:30pm 14.4 9.5 9.8 74 2.4 W 26 39 14 21 1014.5 1014.0 3.6
21/09:00pm 14.2 8.9 10.0 76 2.2 W 28 37 15 20 1014.4 1013.9 3.6
21/08:30pm 14.2 8.0 10.2 77 2.1 W 33 43 18 23 1014.0 1013.5 3.6
21/08:00pm 14.9 8.6 9.1 68 3.0 W 32 43 17 23 1013.7 1013.2 3.4
21/07:30pm 15.0 7.9 8.0 63 3.5 WSW 35 44 19 24 1013.5 1013.0 3.4
21/07:00pm 14.9 8.6 9.1 68 3.0 WSW 32 43 17 23 1013.1 1012.6 3.4
21/06:30pm 15.2 7.5 8.7 65 3.3 WSW 39 52 21 28 1012.8 1012.3 3.4
21/06:00pm 15.5 9.7 9.4 67 3.2 WSW 30 41 16 22 1012.4 1011.8 3.4
21/05:30pm 15.9 9.6 9.8 67 3.2 W 33 50 18 27 1011.9 1011.3 3.4
21/05:00pm 14.2 6.1 10.2 77 2.1 W 43 57 23 31 1011.8 1011.2 3.4
21/04:30pm 15.8 8.2 9.2 65 3.4 WSW 39 54 21 29 1011.2 1010.6 3.4
21/04:00pm 17.4 9.3 8.5 56 4.6 WSW 41 52 22 28 1010.6 1010.0 3.4
21/03:30pm 17.9 9.2 7.9 52 5.1 WSW 43 54 23 29 1010.2 1009.6 3.4
21/03:00pm 16.5 6.2 8.2 58 4.2 WSW 52 70 28 38 1010.1 1009.5 3.4
21/02:38pm 17.5 8.2 9.2 58 4.4 WSW 48 67 26 36 1009.9 1009.3 3.4
21/02:30pm 17.5 7.3 8.4 55 4.7 SW 52 65 28 35 1009.7 1009.1 3.4
21/02:00pm 16.9 8.1 8.1 56 4.5 SW 44 65 24 35 1009.4 1008.8 3.4
21/01:38pm 16.1 8.4 10.0 67 3.2 WSW 41 74 22 40 1009.3 1008.7 3.4
21/01:30pm 16.4 9.5 11.6 73 2.6 W 39 50 21 27 1009.2 1008.6 3.4
21/01:00pm 13.8 8.6 12.7 93 0.6 WSW 32 41 17 22 1009.4 1008.8 3.4
21/12:42pm 13.0 7.4 12.1 94 0.5 SW 33 54 18 29 1009.2 1008.6 3.4
21/12:39pm 13.2 7.9 12.4 95 0.4 SW 32 44 17 24 1009.0 1008.5 3.4
21/12:30pm 13.3 7.8 12.5 95 0.4 SW 33 44 18 24 1009.0 1008.5 3.0
21/12:18pm 13.8 8.5 13.0 95 0.4 WSW 33 43 18 23 1009.0 1008.5 3.0
21/12:00pm 13.7 8.4 13.1 96 0.3 SW 33 44 18 24 1009.0 1008.5 3.0
21/11:59am 13.4 8.0 12.8 96 0.3 SW 33 44 18 24 1008.9 1008.4 2.8
21/11:49am 13.4 7.2 12.8 96 0.3 SW 37 56 20 30 1008.8 1008.3 2.8
21/11:47am 13.2 6.6 12.6 96 0.3 SW 39 56 21 30 1008.6 1008.1 2.8
21/11:30am 12.8 4.3 12.0 95 0.4 WSW 48 69 26 37 1008.7 1008.2 2.6
21/11:22am 13.5 6.2 12.9 96 0.3 WSW 43 61 23 33 1008.5 1008.0 2.0
21/11:15am 13.3 5.0 12.5 95 0.4 WSW 48 59 26 32 1008.4 1007.9 2.0
21/11:00am 14.3 7.0 12.9 91 0.8 SW 43 67 23 36 1008.0 1007.5 1.4
21/10:58am 14.5 8.0 12.9 90 0.9 SW 39 57 21 31 1007.9 1007.4 1.4
21/10:50am 15.3 9.3 13.2 87 1.2 SW 37 54 20 29 1007.7 1007.2 0.6
21/10:45am 16.4 9.9 12.8 79 2.0 SW 39 54 21 29 1007.5 1007.0 0.0
21/10:36am 17.3 10.8 12.8 75 2.5 WSW 39 52 21 28 1007.4 1006.9 0.0
21/10:30am 18.6 11.6 12.4 67 3.5 W 41 50 22 27 1007.3 1006.8 0.0
21/10:00am 19.1 11.7 12.6 66 3.7 WSW 43 56 23 30 1007.4 1006.9 0.0
21/09:42am 18.8 12.5 13.6 72 3.0 WSW 39 57 21 31 1007.4 1006.9 0.0
21/09:30am 18.3 11.7 13.6 74 2.7 W 41 52 22 28 1007.3 1006.8 0.0
21/09:00am 17.2 12.4 15.7 91 0.9 W 35 48 19 26 1006.9 1006.4 14.8
21/08:58am 17.2 12.4 15.7 91 0.9 W 35 48 19 26 1006.9 1006.4 14.8
21/08:46am 17.2 12.6 16.2 94 0.6 WSW 35 48 19 26 1006.8 1006.3 14.8
21/08:30am 16.4 11.5 15.4 94 0.6 W 35 48 19 26 1006.4 1005.8 14.8
21/08:25am 16.8 12.6 15.8 94 0.6 W 32 41 17 22 1006.4 1005.8 14.6
21/08:00am 17.4 15.5 16.6 95 0.5 W 22 30 12 16 1006.3 1005.7 14.0
21/07:30am 16.9 15.1 16.1 95 0.5 W 20 24 11 13 1006.2 1005.6 14.0
21/07:00am 16.4 15.8 15.6 95 0.5 W 13 19 7 10 1005.9 1005.3 13.8
21/06:30am 16.1 15.7 15.3 95 0.5 WSW 11 17 6 9 1005.4 1004.8 13.8
21/06:15am 16.1 15.8 15.5 96 0.4 WSW 11 15 6 8 1005.6 1005.0 13.8
21/06:00am 15.8 14.7 15.2 96 0.4 SW 15 20 8 11 1006.0 1005.4 13.8
21/05:30am 15.9 14.0 15.1 95 0.5 SW 19 22 10 12 1006.1 1005.5 13.4
21/05:00am 16.4 14.4 15.6 95 0.5 SW 20 24 11 13 1005.5 1004.9 13.2
21/04:30am 16.6 15.3 15.8 95 0.5 SSW 17 22 9 12 1005.3 1004.7 13.0
21/04:00am 16.9 15.7 16.1 95 0.5 SW 17 20 9 11 1005.2 1004.6 12.6
21/03:30am 17.2 16.5 16.4 95 0.5 SW 15 19 8 10 1005.0 1004.4 12.4
21/03:00am 17.1 17.1 16.3 95 0.5 WSW 11 13 6 7 1005.4 1004.8 12.2
21/02:30am 17.2 16.9 16.4 95 0.5 WSW 13 15 7 8 1005.7 1005.1 12.2
21/02:16am 17.7 18.3 16.9 95 0.5 WSW 9 13 5 7 1005.9 1005.3 12.2
21/02:00am 17.9 19.2 17.1 95 0.5 SW 6 9 3 5 1006.1 1005.5 12.2
21/01:30am 17.7 18.9 16.9 95 0.5 SSW 6 7 3 4 1006.1 1005.5 12.2
21/01:02am 17.8 19.8 17.0 95 0.5 NNW 2 7 1 4 1007.3 1006.8 12.2
21/01:00am 17.8 19.4 17.0 95 0.5 NW 4 7 2 4 1007.4 1006.9 12.2
21/12:50am 17.8 19.8 17.0 95 0.5 WNW 2 7 1 4 1007.7 1007.2 12.0
21/12:42am 17.7 20.1 16.9 95 0.5 CALM 0 6 0 3 1007.7 1007.2 11.8
21/12:30am 17.8 19.8 17.0 95 0.5 NNE 2 6 1 3 1008.2 1007.7 11.8
21/12:19am 17.7 19.7 16.9 95 0.5 NE 2 7 1 4 1008.4 1007.9 11.2
21/12:00am 17.7 18.3 16.9 95 0.5 NE 9 11 5 6 1009.6 1009.0 11.0
 
Date/Time
WST
Temp
°C
App
Temp
°C
Dew
Point
°C
Rel
Hum
%
Delta-T
°C
Wind Press
QNH
hPa
Press
MSL
hPa
Rain since
9am
mm
Dir  Spd
km/h
Gust
km/h
Spd
kts
Gust
kts
20/11:30pm 17.6 19.2 16.8 95 0.5 SSE 4 13 2 7 1010.2 1009.6 11.0
20/11:20pm 17.6 17.4 16.8 95 0.5 SE 13 17 7 9 1009.3 1008.7 11.0
20/11:00pm 17.5 17.6 16.5 94 0.6 SE 11 15 6 8 1009.0 1008.5 10.8
20/10:55pm 17.5 17.3 16.7 95 0.5 ESE 13 17 7 9 1009.4 1008.8 10.0
20/10:38pm 17.5 16.8 16.5 94 0.6 ESE 15 17 8 9 1008.8 1008.3 9.8
20/10:30pm 17.5 17.2 16.5 94 0.6 SE 13 19 7 10 1008.9 1008.4 9.8
20/10:16pm 17.4 17.1 16.4 94 0.6 ESE 13 19 7 10 1008.9 1008.4 9.8
20/10:00pm 17.4 17.1 16.4 94 0.6 SE 13 17 7 9 1009.3 1008.7 9.8
20/09:35pm 17.3 16.2 16.3 94 0.6 SE 17 20 9 11 1009.2 1008.6 9.8
20/09:30pm 17.3 16.6 16.3 94 0.6 SE 15 20 8 11 1009.3 1008.7 9.8
20/09:08pm 17.3 16.9 16.3 94 0.6 SSW 13 19 7 10 1010.4 1009.8 9.8
20/09:00pm 17.4 17.8 16.4 94 0.6 S 9 13 5 7 1010.9 1010.3 9.4
20/08:30pm 17.2 15.7 16.2 94 0.6 SSE 19 26 10 14 1009.4 1008.8 9.4
20/08:00pm 17.3 16.2 16.3 94 0.6 S 17 24 9 13 1010.2 1009.6 9.4
20/07:58pm 17.3 16.2 16.3 94 0.6 S 17 24 9 13 1010.4 1009.8 9.4
20/07:44pm 17.5 16.5 16.5 94 0.6 SSW 17 22 9 12 1010.3 1009.7 9.4
20/07:41pm 17.5 16.8 16.5 94 0.6 S 15 20 8 11 1010.5 1009.9 9.4
20/07:30pm 17.5 17.2 16.4 93 0.7 SSE 13 19 7 10 1009.8 1009.2 9.4
20/07:08pm 17.4 16.3 16.3 93 0.7 SE 17 22 9 12 1009.3 1008.7 9.4
20/07:00pm 17.5 16.4 16.4 93 0.7 ESE 17 22 9 12 1009.4 1008.8 9.4
20/06:47pm 17.2 18.1 16.1 93 0.7 SSE 6 13 3 7 1010.4 1009.8 9.0
20/06:30pm 17.2 16.4 16.1 93 0.7 SSW 15 19 8 10 1010.8 1010.2 8.6
20/06:18pm 17.1 16.2 15.8 92 0.8 SSE 15 19 8 10 1010.1 1009.5 8.6
20/06:00pm 17.2 15.9 15.7 91 0.9 ESE 17 24 9 13 1009.2 1008.6 8.4
20/05:55pm 17.1 16.5 15.6 91 0.9 SSE 13 19 7 10 1009.9 1009.3 7.6
20/05:30pm 17.8 17.9 15.6 87 1.3 SSE 9 17 5 9 1011.9 1011.3 1.0
20/05:29pm 17.8 17.9 15.6 87 1.3 SSE 9 17 5 9 1011.6 1011.0 0.8
20/05:00pm 18.5 16.4 15.2 81 1.9 S 20 26 11 14 1010.7 1010.1 0.0
20/04:30pm 19.6 17.4 15.0 75 2.7 SSW 20 28 11 15 1010.8 1010.2 0.0
20/04:00pm 20.8 17.3 15.6 72 3.1 SSW 28 37 15 20 1010.0 1009.4 0.0
20/03:30pm 22.0 18.9 15.6 67 3.9 SSW 26 33 14 18 1009.7 1009.1 0.0
20/03:00pm 21.2 17.8 15.7 71 3.3 SSW 28 33 15 18 1009.6 1009.0 0.0
20/02:49pm 22.1 18.9 16.4 70 3.5 SSW 28 37 15 20 1009.3 1008.7 0.0
20/02:30pm 22.4 19.8 16.9 71 3.4 SSW 26 35 14 19 1009.3 1008.7 0.0
20/02:21pm 21.3 17.8 16.5 74 2.9 SSW 30 35 16 19 1009.5 1008.9 0.0
20/02:00pm 21.9 18.7 16.4 71 3.4 SSW 28 39 15 21 1009.9 1009.3 0.0
20/01:30pm 22.6 19.7 17.1 71 3.4 SW 28 37 15 20 1010.3 1009.7 0.0
20/01:00pm 25.2 22.6 17.9 64 4.6 SW 28 39 15 21 1010.6 1010.0 0.0
20/12:30pm 24.8 21.7 17.5 64 4.6 SW 30 37 16 20 1010.8 1010.2 0.0
20/12:00pm 24.9 22.2 17.6 64 4.6 SW 28 35 15 19 1010.7 1010.1 0.0
20/11:30am 27.2 24.2 17.7 56 6.0 SW 30 41 16 22 1010.9 1010.3 0.0
20/11:00am 30.5 26.8 11.5 31 11.1 W 22 30 12 16 1011.1 1010.5 0.0
20/10:30am 30.4 27.0 9.3 27 11.9 W 17 28 9 15 1011.3 1010.7 0.0
20/10:00am 29.1 25.5 9.8 30 10.9 WSW 19 26 10 14 1011.7 1011.1 0.0
20/09:30am 29.5 24.9 8.0 26 11.8 WNW 22 30 12 16 1011.9 1011.3 0.0
20/09:00am 28.6 24.3 9.3 30 10.8 NW 22 32 12 17 1012.0 1011.4 0.2
20/08:30am 26.2 20.0 9.5 35 9.2 NNW 32 43 17 23 1011.5 1010.9 0.2
20/08:00am 24.2 17.2 8.6 37 8.4 N 35 44 19 24 1011.4 1010.8 0.2
20/07:30am 24.2 18.0 9.4 39 8.1 N 32 43 17 23 1011.7 1011.1 0.2
20/07:00am 22.3 14.9 8.4 41 7.4 N 37 46 20 25 1011.7 1011.1 0.2
20/06:30am 20.9 13.9 8.5 45 6.5 N 35 50 19 27 1011.7 1011.1 0.2

Other Formats:

Comma delimited format used in spreadsheet applications
http://www.bom.gov.au/fwo/IDW60801/IDW60801.95638.axf

JavaScript Object Notation format (JSON) in row-major order
http://www.bom.gov.au/fwo/IDW60801/IDW60801.95638.json